Time;durP1;ratioP1;P1;durP2;ratioP2;P2;SDS_P1;SDS_P2;PMS_P1;PMS_P2;Temp;Humidity;BMP_temperature;BMP_pressure;BME280_temperature;BME280_humidity;BME280_pressure;Samples;Min_cycle;Max_cycle;Signal;HPM_P1;HPM_P2
2022/06/04 00:00:59;;;;;;;13.02;7.63;;;16.40;99.90;;;;;;5052479;28;20540;-64
2022/06/04 00:03:27;;;;;;;;;;;16.40;99.90;;;;;;5053603;28;20099;-64
2022/06/04 00:05:56;;;;;;;16.27;7.93;;;16.30;99.90;;;;;;5072368;28;19951;-64
2022/06/04 00:08:23;;;;;;;19.50;8.05;;;16.30;99.90;;;;;;5088285;28;20047;-64
2022/06/04 00:16:26;;;;;;;18.38;6.95;;;16.20;99.90;;;;;;5076830;28;20082;-63
2022/06/04 00:18:53;;;;;;;12.93;6.57;;;16.20;99.90;;;;;;5092420;28;20126;-62
2022/06/04 00:21:22;;;;;;;11.60;7.15;;;16.20;99.90;;;;;;5092497;28;20044;-63
2022/06/04 00:23:49;;;;;;;14.93;7.20;;;16.20;99.90;;;;;;5088564;28;20082;-63
2022/06/04 00:26:17;;;;;;;14.13;7.50;;;16.20;99.90;;;;;;5087116;28;20052;-63
2022/06/04 00:28:46;;;;;;;12.25;6.72;;;16.20;99.90;;;;;;5092268;28;20048;-62
2022/06/04 00:31:15;;;;;;;9.10;5.68;;;16.40;99.90;;;;;;5092335;28;20040;-63
2022/06/04 00:33:42;;;;;;;10.30;5.28;;;16.10;99.90;;;;;;5090473;28;20044;-63
2022/06/04 00:36:09;;;;;;;7.90;5.18;;;16.00;99.90;;;;;;5085946;28;20064;-63
2022/06/04 00:38:36;;;;;;;8.35;5.63;;;15.90;99.90;;;;;;5092873;28;20036;-63
2022/06/04 00:41:11;;;;;;;8.07;4.85;;;15.90;99.90;;;;;;5088173;28;20037;-63
2022/06/04 00:44:10;;;;;;;9.60;5.05;;;15.80;99.90;;;;;;5081330;28;20090;-63
2022/06/04 00:46:39;;;;;;;10.40;4.82;;;15.80;99.90;;;;;;5087157;28;20056;-63
2022/06/04 00:49:25;;;;;;;10.27;5.03;;;15.80;99.90;;;;;;5092677;28;20051;-63
2022/06/04 00:51:53;;;;;;;10.57;5.40;;;15.80;99.90;;;;;;5088866;28;20048;-63
2022/06/04 00:54:20;;;;;;;10.98;5.00;;;15.70;99.90;;;;;;5086963;28;20048;-63
2022/06/04 00:57:24;;;;;;;10.52;4.38;;;15.80;99.90;;;;;;5092553;28;20036;-63
2022/06/04 00:59:57;;;;;;;9.70;5.00;;;15.70;99.90;;;;;;5088944;28;20040;-62
2022/06/04 01:02:59;;;;;;;9.38;4.97;;;15.70;99.90;;;;;;5087602;28;20044;-63
2022/06/04 01:05:34;;;;;;;9.75;4.85;;;15.70;99.90;;;;;;5092461;28;20097;-63
2022/06/04 01:08:22;;;;;;;10.02;5.25;;;15.70;99.90;;;;;;5091699;28;20048;-63
2022/06/04 01:10:57;;;;;;;8.88;5.25;;;15.20;99.90;;;;;;5083269;28;20580;-63
2022/06/04 01:14:28;;;;;;;7.40;4.50;;;15.50;99.90;;;;;;5092106;28;20119;-63
2022/06/04 01:17:15;;;;;;;10.00;5.10;;;15.50;99.90;;;;;;5024868;28;20130;-63
2022/06/04 01:20:02;;;;;;;8.02;4.95;;;15.50;99.90;;;;;;5087093;28;20393;-62
2022/06/04 01:23:07;;;;;;;11.85;5.47;;;15.50;99.90;;;;;;5091983;28;20385;-62
2022/06/04 01:25:46;;;;;;;6.47;4.43;;;15.40;99.90;;;;;;5090803;28;20043;-63
2022/06/04 01:28:16;;;;;;;7.78;5.40;;;15.40;99.90;;;;;;5083187;28;20093;-63
2022/06/04 01:30:48;;;;;;;9.93;5.18;;;15.40;99.90;;;;;;5091659;28;20086;-63
2022/06/04 01:33:33;;;;;;;11.75;5.63;;;15.40;99.90;;;;;;5091335;28;20046;-62
2022/06/04 01:36:06;;;;;;;8.77;4.13;;;15.40;99.90;;;;;;5079950;28;20084;-63
2022/06/04 01:38:44;;;;;;;5.88;3.90;;;15.40;99.90;;;;;;5071507;28;20049;-63
2022/06/04 01:41:13;;;;;;;;;;;15.40;99.90;;;;;;5071603;28;20113;-62
2022/06/04 01:44:12;;;;;;;8.48;4.63;;;15.40;99.90;;;;;;5086611;28;19920;-62
2022/06/04 01:46:45;;;;;;;12.05;5.00;;;15.30;99.90;;;;;;5088948;28;20036;-63
2022/06/04 01:49:18;;;;;;;9.25;4.70;;;15.20;99.90;;;;;;5074429;28;20074;-63
2022/06/04 01:51:47;;;;;;;8.15;5.25;;;15.30;99.90;;;;;;5089977;28;20432;-63
2022/06/04 01:54:22;;;;;;;12.32;4.45;;;15.30;99.90;;;;;;5083061;28;20097;-63
2022/06/04 01:56:53;;;;;;;6.72;4.72;;;15.30;99.90;;;;;;5091644;28;20121;-63
2022/06/04 01:59:34;;;;;;;7.60;4.68;;;15.20;99.90;;;;;;5085291;28;20037;-63
2022/06/04 02:02:04;;;;;;;11.13;5.85;;;15.20;99.90;;;;;;5074840;28;20040;-63
2022/06/04 02:04:38;;;;;;;9.50;6.25;;;15.20;99.90;;;;;;5091445;28;20040;-63
2022/06/04 02:10:01;;;;;;;9.80;4.13;;;15.30;99.90;;;;;;5080194;28;20147;-62
2022/06/04 02:12:28;;;;;;;10.38;4.35;;;15.20;99.90;;;;;;5087051;28;20500;-63
2022/06/04 02:14:55;;;;;;;;;;;15.10;99.90;;;;;;5091917;28;20438;-63
2022/06/04 02:17:24;;;;;;;11.38;5.10;;;15.10;99.90;;;;;;5090751;28;19946;-62
2022/06/04 02:19:51;;;;;;;11.43;5.22;;;15.10;99.90;;;;;;5082683;28;20055;-62
2022/06/04 02:22:18;;;;;;;6.93;5.03;;;15.10;99.90;;;;;;5091165;28;20059;-63
2022/06/04 02:24:45;;;;;;;10.02;4.55;;;15.10;99.90;;;;;;5089262;28;20442;-63
2022/06/04 02:27:12;;;;;;;9.02;5.13;;;15.00;99.90;;;;;;5085012;28;20409;-62
2022/06/04 02:29:40;;;;;;;8.05;4.80;;;15.00;99.90;;;;;;5091183;28;20036;-63
2022/06/04 02:32:12;;;;;;;;;;;15.00;99.90;;;;;;5090802;28;20032;-62
2022/06/04 02:34:59;;;;;;;7.68;5.10;;;15.00;99.90;;;;;;5082854;28;19920;-63
2022/06/04 02:37:49;;;;;;;14.15;5.53;;;15.00;99.90;;;;;;5091263;28;20378;-62
2022/06/04 02:40:24;;;;;;;11.70;6.63;;;14.90;99.90;;;;;;5090136;28;20093;-63
2022/06/04 02:43:04;;;;;;;15.35;6.75;;;15.00;99.90;;;;;;5082723;28;20052;-63
2022/06/04 02:45:42;;;;;;;13.88;6.85;;;15.00;99.90;;;;;;5091059;28;20097;-63
2022/06/04 02:48:14;;;;;;;14.43;7.07;;;15.10;99.90;;;;;;5090985;28;20040;-63
2022/06/04 02:50:47;;;;;;;10.90;6.22;;;15.10;99.90;;;;;;5081904;28;20099;-63
2022/06/04 02:53:16;;;;;;;9.32;6.20;;;15.10;99.90;;;;;;5091264;28;20047;-63
2022/06/04 02:55:50;;;;;;;9.27;5.78;;;15.00;99.90;;;;;;5090913;28;20127;-63
2022/06/04 02:58:19;;;;;;;7.43;5.40;;;15.00;99.90;;;;;;5084030;28;20036;-62
2022/06/04 03:00:52;;;;;;;9.57;4.78;;;14.90;99.90;;;;;;5081993;28;20044;-63
2022/06/04 03:03:19;;;;;;;7.32;5.32;;;14.90;99.90;;;;;;5092525;28;20508;-63
2022/06/04 03:05:56;;;;;;;8.43;5.45;;;14.80;99.90;;;;;;5094465;28;20554;-63
2022/06/04 03:08:24;;;;;;;8.13;5.20;;;14.80;99.90;;;;;;5087163;28;20044;-63
2022/06/04 03:10:51;;;;;;;7.78;5.10;;;14.80;99.90;;;;;;5093154;28;20446;-63
2022/06/04 03:13:18;;;;;;;9.70;5.35;;;14.80;99.90;;;;;;5094184;28;20070;-63
2022/06/04 03:15:45;;;;;;;11.02;5.93;;;14.80;99.90;;;;;;5092095;28;20515;-63
2022/06/04 03:18:12;;;;;;;11.82;6.93;;;14.80;99.90;;;;;;5087730;28;20051;-62
2022/06/04 03:20:40;;;;;;;12.35;5.70;;;14.90;99.90;;;;;;5094041;28;20048;-63
2022/06/04 03:23:13;;;;;;;10.05;6.47;;;14.80;99.90;;;;;;5093878;28;20043;-62
2022/06/04 03:25:40;;;;;;;12.73;6.55;;;14.90;99.90;;;;;;5085750;28;20451;-63
2022/06/04 03:28:07;;;;;;;8.85;5.45;;;14.90;99.90;;;;;;5094275;28;20052;-63
2022/06/04 03:30:35;;;;;;;;;;;14.80;99.90;;;;;;5094226;28;20047;-63
2022/06/04 03:33:02;;;;;;;13.20;5.00;;;14.80;99.90;;;;;;5093363;28;19920;-63
2022/06/04 03:35:29;;;;;;;;;;;14.80;99.90;;;;;;5086104;28;20032;-63
2022/06/04 03:37:55;;;;;;;7.72;4.88;;;14.80;99.90;;;;;;5094134;28;20334;-63
2022/06/04 03:40:22;;;;;;;9.27;5.50;;;14.70;99.90;;;;;;5093548;28;20048;-62
2022/06/04 03:42:49;;;;;;;8.13;5.43;;;14.70;99.90;;;;;;5091030;28;20063;-63
2022/06/04 03:45:16;;;;;;;14.77;5.80;;;14.70;99.90;;;;;;5088148;28;20052;-63
2022/06/04 03:47:43;;;;;;;8.27;6.00;;;14.80;99.90;;;;;;5093785;28;20097;-63
2022/06/04 03:50:13;;;;;;;11.38;5.50;;;14.80;99.90;;;;;;5092947;28;20546;-63
2022/06/04 03:52:41;;;;;;;10.15;5.70;;;14.80;99.90;;;;;;5085193;28;20052;-63
2022/06/04 03:55:09;;;;;;;9.25;5.05;;;14.90;99.90;;;;;;5093705;28;20040;-63
2022/06/04 03:57:37;;;;;;;10.80;6.28;;;14.90;99.90;;;;;;5093363;28;20040;-63
2022/06/04 04:00:08;;;;;;;10.50;5.03;;;14.90;99.90;;;;;;5092743;28;20054;-62
2022/06/04 04:02:39;;;;;;;10.13;4.75;;;14.90;99.90;;;;;;5085088;28;20122;-63
2022/06/04 04:05:08;;;;;;;7.13;5.07;;;14.90;99.90;;;;;;5093514;28;20464;-63
2022/06/04 04:07:35;;;;;;;8.38;4.32;;;14.80;99.90;;;;;;5093364;28;20055;-63
2022/06/04 04:10:02;;;;;;;7.57;4.40;;;14.80;99.90;;;;;;5092103;28;20044;-63
2022/06/04 04:12:30;;;;;;;9.93;4.53;;;14.80;99.90;;;;;;5084593;28;20028;-63
2022/06/04 04:14:57;;;;;;;8.85;4.78;;;14.80;99.90;;;;;;5092559;28;20520;-63
2022/06/04 04:17:24;;;;;;;9.57;5.00;;;14.80;99.90;;;;;;5089387;28;20051;-63
2022/06/04 04:19:51;;;;;;;8.45;4.47;;;14.80;99.90;;;;;;5084394;28;20052;-63
2022/06/04 04:22:19;;;;;;;9.93;4.68;;;14.80;99.90;;;;;;5092932;28;20048;-63
2022/06/04 04:24:46;;;;;;;12.85;6.70;;;14.80;99.90;;;;;;5074768;28;20447;-63
2022/06/04 04:27:12;;;;;;;16.52;6.22;;;14.90;99.90;;;;;;5086805;28;20040;-63
2022/06/04 04:29:39;;;;;;;9.98;5.60;;;14.90;99.90;;;;;;5090408;28;20110;-63
2022/06/04 04:32:07;;;;;;;9.10;5.22;;;15.00;99.90;;;;;;5092640;28;20045;-63
2022/06/04 04:34:34;;;;;;;11.93;5.90;;;15.00;99.90;;;;;;5091860;28;20089;-63
2022/06/04 04:37:01;;;;;;;6.90;5.10;;;15.10;99.90;;;;;;5084908;28;20040;-63
2022/06/04 04:39:27;;;;;;;8.35;5.00;;;15.10;99.90;;;;;;5092841;28;20086;-63
2022/06/04 04:41:54;;;;;;;10.77;5.88;;;15.20;99.90;;;;;;5091473;28;20032;-63
2022/06/04 04:44:21;;;;;;;8.10;5.32;;;15.20;99.90;;;;;;5089051;28;20047;-63
2022/06/04 04:46:52;;;;;;;10.07;6.13;;;15.30;99.90;;;;;;5092191;28;20036;-63
2022/06/04 04:49:20;;;;;;;10.70;5.97;;;15.40;99.90;;;;;;5092214;28;20071;-63
2022/06/04 04:51:47;;;;;;;12.70;5.63;;;15.50;99.90;;;;;;5090219;28;20089;-63
2022/06/04 04:54:14;;;;;;;10.45;5.95;;;15.50;99.90;;;;;;5091922;28;20495;-62
2022/06/04 04:56:42;;;;;;;12.68;6.47;;;15.60;99.90;;;;;;5089670;28;20044;-62
2022/06/04 04:59:09;;;;;;;11.52;6.07;;;15.60;99.90;;;;;;5091696;28;20097;-63
2022/06/04 05:01:36;;;;;;;10.23;5.28;;;15.70;99.90;;;;;;5083550;28;20043;-63
2022/06/04 05:04:03;;;;;;;13.80;6.32;;;15.80;99.90;;;;;;5092281;28;20048;-63
2022/06/04 05:06:30;;;;;;;12.57;6.63;;;15.80;99.90;;;;;;5092200;28;20044;-63
2022/06/04 05:08:57;;;;;;;8.60;5.20;;;16.00;99.90;;;;;;5091650;28;20047;-62
2022/06/04 05:11:27;;;;;;;10.45;5.90;;;16.00;99.90;;;;;;5082219;28;20102;-63
2022/06/04 05:13:56;;;;;;;10.68;7.03;;;16.00;99.90;;;;;;5092026;28;20089;-63
2022/06/04 05:16:27;;;;;;;9.45;6.10;;;16.00;99.90;;;;;;5092131;28;20059;-62
2022/06/04 05:18:53;;;;;;;11.82;6.68;;;16.10;99.90;;;;;;5088610;28;20464;-62
2022/06/04 05:21:27;;;;;;;12.45;5.55;;;16.10;99.90;;;;;;5086453;28;20097;-63
2022/06/04 05:23:55;;;;;;;8.07;5.03;;;16.10;99.90;;;;;;5092091;28;20097;-63
2022/06/04 05:26:23;;;;;;;10.38;6.05;;;16.10;99.90;;;;;;5091538;28;20040;-63
2022/06/04 05:28:51;;;;;;;11.02;5.10;;;16.20;99.90;;;;;;5082252;28;20048;-63
2022/06/04 05:31:19;;;;;;;10.98;5.82;;;16.20;99.90;;;;;;5084289;28;20513;-63
2022/06/04 05:33:46;;;;;;;10.50;5.68;;;16.10;99.90;;;;;;5071619;28;20033;-63
2022/06/04 05:36:13;;;;;;;14.55;6.30;;;16.20;99.90;;;;;;5080264;28;20115;-62
2022/06/04 05:38:41;;;;;;;11.20;5.75;;;16.30;99.90;;;;;;5086142;28;20036;-63
2022/06/04 05:41:13;;;;;;;10.18;5.20;;;16.40;99.90;;;;;;5088005;28;20048;-63
2022/06/04 05:43:40;;;;;;;11.93;5.50;;;16.40;99.90;;;;;;5085569;28;20049;-63
2022/06/04 05:46:10;;;;;;;9.70;5.13;;;16.50;99.90;;;;;;5087317;28;20044;-62
2022/06/04 05:48:41;;;;;;;9.50;5.60;;;16.60;99.90;;;;;;5080179;28;20048;-63
2022/06/04 05:51:22;;;;;;;6.95;5.15;;;16.70;99.90;;;;;;5085315;28;20085;-62
2022/06/04 05:53:49;;;;;;;9.25;4.90;;;16.80;99.90;;;;;;5087146;28;20044;-62
2022/06/04 05:56:24;;;;;;;;;;;17.00;99.90;;;;;;5081359;28;20032;-62
2022/06/04 05:58:52;;;;;;;8.63;4.90;;;17.10;99.90;;;;;;5088922;28;19920;-62
2022/06/04 06:01:20;;;;;;;7.57;4.40;;;17.20;99.90;;;;;;5085478;28;20101;-62
2022/06/04 06:03:48;;;;;;;7.57;4.55;;;17.30;99.90;;;;;;5082326;28;20087;-62
2022/06/04 06:06:22;;;;;;;9.50;4.60;;;17.40;99.90;;;;;;5073003;28;20431;-62
2022/06/04 06:08:59;;;;;;;6.57;4.30;;;17.40;99.90;;;;;;5083049;28;20056;-61
2022/06/04 06:11:26;;;;;;;6.97;4.18;;;17.50;99.90;;;;;;5090229;28;20036;-61
2022/06/04 06:13:53;;;;;;;7.75;5.25;;;17.60;99.90;;;;;;5081423;28;20044;-61
2022/06/04 06:16:28;;;;;;;7.65;4.20;;;17.70;99.90;;;;;;5081720;28;20036;-62
2022/06/04 06:18:56;;;;;;;8.00;4.35;;;17.70;99.90;;;;;;5082433;28;20063;-60
2022/06/04 06:21:26;;;;;;;10.18;4.30;;;17.80;99.90;;;;;;5084731;28;20036;-61
2022/06/04 06:23:54;;;;;;;6.10;3.92;;;17.90;99.90;;;;;;5089305;28;20077;-60
2022/06/04 06:26:23;;;;;;;6.15;4.20;;;18.00;99.90;;;;;;5082521;28;20047;-61
2022/06/04 06:28:50;;;;;;;8.60;4.32;;;18.10;99.90;;;;;;5086709;28;20621;-60
2022/06/04 06:31:21;;;;;;;7.35;3.85;;;18.20;99.90;;;;;;5082645;28;20032;-60
2022/06/04 06:33:49;;;;;;;8.80;4.10;;;18.40;99.90;;;;;;5087726;28;20047;-60
2022/06/04 06:36:18;;;;;;;5.65;3.65;;;18.50;99.90;;;;;;5082348;28;20044;-61
2022/06/04 06:38:45;;;;;;;8.52;3.70;;;18.70;99.90;;;;;;5093377;28;20040;-61
2022/06/04 06:41:19;;;;;;;6.30;4.25;;;18.80;99.90;;;;;;5089048;28;20123;-60
2022/06/04 06:43:47;;;;;;;4.55;3.38;;;18.90;99.90;;;;;;5086490;28;20046;-61
2022/06/04 06:46:19;;;;;;;7.10;3.55;;;19.10;99.90;;;;;;5095084;28;20050;-60
2022/06/04 06:48:49;;;;;;;5.15;3.13;;;19.20;99.90;;;;;;5093117;28;20044;-61
2022/06/04 06:51:25;;;;;;;7.45;3.90;;;19.40;99.90;;;;;;5091019;28;20044;-62
2022/06/04 06:53:56;;;;;;;8.30;4.25;;;19.60;99.90;;;;;;5091593;28;20059;-61
2022/06/04 06:56:26;;;;;;;5.05;3.53;;;19.70;99.90;;;;;;5093254;28;20047;-61
2022/06/04 06:58:54;;;;;;;5.07;3.88;;;19.80;99.90;;;;;;5089831;28;20040;-61
2022/06/04 07:01:21;;;;;;;5.47;3.33;;;19.90;99.90;;;;;;5093284;28;20054;-61
2022/06/04 07:03:48;;;;;;;8.13;3.47;;;19.90;99.90;;;;;;5090588;28;20044;-61
2022/06/04 07:06:25;;;;;;;6.03;3.58;;;20.00;99.90;;;;;;5091655;28;20066;-61
2022/06/04 07:08:52;;;;;;;5.72;3.58;;;20.10;99.90;;;;;;5089439;28;20478;-61
2022/06/04 07:11:19;;;;;;;6.88;3.60;;;20.10;99.90;;;;;;5075045;28;20043;-61
2022/06/04 07:13:46;;;;;;;6.38;4.18;;;20.20;99.90;;;;;;5085331;28;20507;-61
2022/06/04 07:16:12;;;;;;;7.93;4.07;;;20.30;99.90;;;;;;5093605;28;20036;-61
2022/06/04 07:18:39;;;;;;;6.88;3.50;;;20.40;99.90;;;;;;5091254;28;20042;-61
2022/06/04 07:21:06;;;;;;;9.77;3.80;;;20.50;99.90;;;;;;5092982;28;20081;-61
2022/06/04 07:23:36;;;;;;;6.25;3.67;;;20.40;99.90;;;;;;5087656;28;20458;-61
2022/06/04 07:26:04;;;;;;;4.72;3.28;;;20.50;99.90;;;;;;5091104;28;20048;-61
2022/06/04 07:28:32;;;;;;;7.28;3.90;;;20.70;99.90;;;;;;5091769;28;20069;-61
2022/06/04 07:30:59;;;;;;;6.15;3.90;;;20.80;99.90;;;;;;5092563;28;20392;-61
2022/06/04 07:33:27;;;;;;;7.15;3.90;;;20.80;99.90;;;;;;5090883;28;20040;-61
2022/06/04 07:35:54;;;;;;;5.07;3.45;;;20.90;99.90;;;;;;5092644;28;20044;-62
2022/06/04 07:38:21;;;;;;;6.47;3.45;;;21.00;99.90;;;;;;5089317;28;20040;-62
2022/06/04 07:40:47;;;;;;;5.53;3.33;;;21.00;99.90;;;;;;5083175;28;20496;-63
2022/06/04 07:43:14;;;;;;;8.00;3.47;;;21.00;99.90;;;;;;5092821;28;20039;-62
2022/06/04 07:45:41;;;;;;;6.82;3.00;;;21.10;99.90;;;;;;5090029;28;20075;-62
2022/06/04 07:48:09;;;;;;;7.60;3.35;;;21.20;99.90;;;;;;5091838;28;20039;-63
2022/06/04 07:50:38;;;;;;;6.10;3.28;;;21.40;99.90;;;;;;5088815;28;20044;-62
2022/06/04 07:53:06;;;;;;;6.25;3.30;;;21.60;99.90;;;;;;5092739;28;20098;-63
2022/06/04 07:55:37;;;;;;;6.38;3.85;;;21.70;99.90;;;;;;5090596;28;20040;-63
2022/06/04 07:58:04;;;;;;;4.85;3.20;;;21.90;99.90;;;;;;5088464;28;20856;-63
2022/06/04 08:00:31;;;;;;;7.35;3.33;;;21.90;99.90;;;;;;5090734;28;20051;-63
2022/06/04 08:02:58;;;;;;;6.35;3.17;;;21.90;99.90;;;;;;5093221;28;20054;-63
2022/06/04 08:05:24;;;;;;;7.82;3.40;;;22.00;99.90;;;;;;5072320;28;20416;-63
2022/06/04 08:07:51;;;;;;;4.57;3.63;;;22.20;99.90;;;;;;5085174;28;20066;-63
2022/06/04 08:10:18;;;;;;;4.22;3.40;;;22.40;99.90;;;;;;5093055;28;20116;-63
2022/06/04 08:12:47;;;;;;;5.07;3.35;;;22.30;99.90;;;;;;5092027;28;20044;-63
2022/06/04 08:15:14;;;;;;;7.85;3.35;;;22.50;99.90;;;;;;5081273;28;20036;-63
2022/06/04 08:17:41;;;;;;;4.57;3.40;;;22.60;99.90;;;;;;5090784;28;20062;-63
2022/06/04 08:20:08;;;;;;;3.17;2.65;;;22.80;99.90;;;;;;5092584;28;20040;-63
2022/06/04 08:22:35;;;;;;;4.60;3.13;;;23.00;99.90;;;;;;5092611;28;20511;-63
2022/06/04 08:25:02;;;;;;;6.38;3.28;;;23.20;99.90;;;;;;5084643;28;20036;-63
2022/06/04 08:27:29;;;;;;;;;;;23.70;99.90;;;;;;5084108;28;20039;-63
2022/06/04 08:29:56;;;;;;;5.00;2.80;;;23.70;99.90;;;;;;5081570;28;19920;-62
2022/06/04 08:32:25;;;;;;;4.82;2.95;;;23.80;99.90;;;;;;5083619;28;20089;-62
2022/06/04 08:34:52;;;;;;;;;;;23.80;99.90;;;;;;5082837;28;20128;-63
2022/06/04 08:37:18;;;;;;;5.15;3.03;;;23.80;99.90;;;;;;5082259;28;20288;-63
2022/06/04 08:39:45;;;;;;;5.05;3.10;;;23.80;99.90;;;;;;5081419;28;20063;-63
2022/06/04 08:42:13;;;;;;;7.20;3.22;;;24.00;99.90;;;;;;5084355;28;20036;-63
2022/06/04 08:44:46;;;;;;;5.65;3.35;;;23.80;99.90;;;;;;5090219;28;20318;-63
2022/06/04 08:47:38;;;;;;;4.95;2.85;;;23.50;99.90;;;;;;5089849;28;20382;-63
2022/06/04 08:50:21;;;;;;;4.72;3.30;;;23.50;99.90;;;;;;5084727;28;20043;-63
2022/06/04 08:52:52;;;;;;;5.65;3.05;;;23.50;99.90;;;;;;5088850;28;20036;-62
2022/06/04 08:58:44;;;;;;;10.25;3.90;;;23.70;99.90;;;;;;5087087;28;20404;-61
2022/06/04 09:01:18;;;;;;;8.80;3.50;;;23.80;99.90;;;;;;5090137;28;20127;-62
2022/06/04 09:04:10;;;;;;;6.10;3.20;;;24.00;99.90;;;;;;5091642;28;20036;-61
2022/06/04 09:06:58;;;;;;;5.78;3.55;;;24.20;99.90;;;;;;5080319;28;20060;-61
2022/06/04 09:09:37;;;;;;;11.93;4.03;;;24.20;99.90;;;;;;5090289;28;20055;-62
2022/06/04 09:12:28;;;;;;;10.27;6.85;;;24.00;99.90;;;;;;5083694;28;20126;-61
2022/06/04 09:15:31;;;;;;;7.50;3.85;;;23.70;99.90;;;;;;5089989;28;20044;-61
2022/06/04 09:18:04;;;;;;;5.55;3.38;;;23.30;99.90;;;;;;5090080;28;20154;-61
2022/06/04 09:20:41;;;;;;;7.35;4.13;;;23.00;99.90;;;;;;5090323;28;20396;-62
2022/06/04 09:23:38;;;;;;;6.73;3.87;;;22.90;99.90;;;;;;5086243;28;20492;-62
2022/06/04 09:26:14;;;;;;;5.50;4.00;;;23.10;99.90;;;;;;5089011;28;20700;-62
2022/06/04 09:28:55;;;;;;;8.50;3.65;;;23.40;99.90;;;;;;5088846;28;20700;-61
2022/06/04 09:32:03;;;;;;;6.07;4.00;;;23.60;99.90;;;;;;5089574;28;20118;-62
2022/06/04 09:34:45;;;;;;;6.68;3.33;;;23.90;99.90;;;;;;5076957;28;20067;-61
2022/06/04 09:37:12;;;;;;;9.60;3.83;;;24.10;99.90;;;;;;5091331;28;20377;-62
2022/06/04 09:39:47;;;;;;;7.45;3.60;;;24.20;99.90;;;;;;5089195;28;20048;-62
2022/06/04 09:42:13;;;;;;;8.75;3.47;;;24.20;99.90;;;;;;5082772;28;20040;-61
2022/06/04 09:44:57;;;;;;;6.10;3.35;;;24.30;99.90;;;;;;5073671;28;20040;-62
2022/06/04 09:47:47;;;;;;;8.50;3.78;;;24.50;99.90;;;;;;5112682;22;20051;-63
2022/06/04 09:50:26;;;;;;;7.25;3.30;;;24.60;99.90;;;;;;5094888;28;20054;-63
2022/06/04 09:53:00;;;;;;;4.25;2.90;;;24.60;99.90;;;;;;5100361;28;20047;-63
2022/06/04 09:55:29;;;;;;;5.20;2.70;;;24.70;99.90;;;;;;5100848;28;20096;-63
2022/06/04 09:57:59;;;;;;;4.35;3.30;;;25.00;99.90;;;;;;5099709;28;20039;-63
2022/06/04 10:00:34;;;;;;;6.03;3.33;;;25.10;99.90;;;;;;5105017;28;20051;-63
2022/06/04 10:03:11;;;;;;;7.75;3.08;;;24.80;99.90;;;;;;5109184;28;20036;-63
2022/06/04 10:05:49;;;;;;;6.00;2.90;;;24.90;99.90;;;;;;5102585;28;20086;-63
2022/06/04 10:08:23;;;;;;;7.53;3.83;;;25.00;99.90;;;;;;5112348;28;20438;-63
2022/06/04 10:10:58;;;;;;;6.90;3.42;;;25.20;99.90;;;;;;5107171;28;20101;-63
2022/06/04 10:13:43;;;;;;;5.72;3.20;;;25.50;99.90;;;;;;5101566;28;20036;-62
2022/06/04 10:16:21;;;;;;;5.40;2.80;;;25.60;99.90;;;;;;5103626;28;20032;-62
2022/06/04 10:18:57;;;;;;;13.02;3.42;;;25.60;99.90;;;;;;5095291;28;20514;-63
2022/06/04 10:21:34;;;;;;;9.85;2.70;;;25.40;99.90;;;;;;5095138;28;20559;-64
2022/06/04 10:24:06;;;;;;;;;;;25.30;99.90;;;;;;5094640;28;20041;-64
2022/06/04 10:26:59;;;;;;;5.10;2.70;;;25.10;99.90;;;;;;5112399;28;19927;-63
2022/06/04 10:29:57;;;;;;;6.68;2.72;;;25.20;99.90;;;;;;5115378;28;20048;-62
2022/06/04 10:32:51;;;;;;;9.25;2.92;;;25.30;99.90;;;;;;5095362;28;20401;-66
2022/06/04 10:35:30;;;;;;;7.32;2.65;;;25.30;99.90;;;;;;5094809;28;20051;-65
2022/06/04 10:38:09;;;;;;;2.65;2.20;;;25.40;99.90;;;;;;5094967;28;20094;-65
2022/06/04 10:40:40;;;;;;;4.28;2.40;;;25.60;99.90;;;;;;5094136;28;20051;-65
2022/06/04 10:43:51;;;;;;;7.85;2.63;;;25.70;99.90;;;;;;5110919;28;20093;-65
2022/06/04 10:46:36;;;;;;;4.03;2.38;;;25.80;99.90;;;;;;5115189;28;20047;-65
2022/06/04 10:49:35;;;;;;;6.55;2.50;;;26.00;99.90;;;;;;5113903;28;20048;-65
2022/06/04 10:52:11;;;;;;;7.68;2.70;;;26.00;99.90;;;;;;5106628;28;20487;-65
2022/06/04 10:54:52;;;;;;;6.32;3.00;;;26.20;99.90;;;;;;5115161;28;20048;-65
2022/06/04 10:57:38;;;;;;;4.30;2.50;;;26.20;99.90;;;;;;5100860;28;20040;-65
2022/06/04 11:00:17;;;;;;;4.40;2.33;;;26.20;99.90;;;;;;5102621;28;20032;-65
2022/06/04 11:02:54;;;;;;;7.13;2.90;;;26.20;99.90;;;;;;5094475;28;20044;-65
2022/06/04 11:05:36;;;;;;;8.55;2.55;;;26.40;99.90;;;;;;5100402;28;20396;-65
2022/06/04 11:08:23;;;;;;;7.47;2.95;;;26.60;99.90;;;;;;5102606;28;20044;-65
2022/06/04 11:10:57;;;;;;;9.63;2.60;;;26.60;99.90;;;;;;5094601;28;20504;-65
2022/06/04 11:13:32;;;;;;;4.07;2.28;;;26.60;99.90;;;;;;5076420;28;20063;-65
2022/06/04 11:16:05;;;;;;;9.50;2.30;;;26.50;99.90;;;;;;5100425;28;20107;-65
2022/06/04 11:18:49;;;;;;;7.03;2.72;;;26.50;99.90;;;;;;5083736;28;20047;-65
2022/06/04 11:21:32;;;;;;;6.00;2.38;;;26.50;99.90;;;;;;5114135;28;20040;-65
2022/06/04 11:24:27;;;;;;;6.75;2.65;;;26.60;99.90;;;;;;5114454;28;20487;-65
2022/06/04 11:27:07;;;;;;;10.43;2.45;;;26.70;99.90;;;;;;5109725;28;20040;-65
2022/06/04 11:29:37;;;;;;;5.97;2.58;;;26.60;99.90;;;;;;5111178;28;20052;-65
2022/06/04 11:32:08;;;;;;;4.38;2.63;;;26.70;99.90;;;;;;5113539;28;20055;-65
2022/06/04 11:35:09;;;;;;;4.68;2.28;;;26.60;99.90;;;;;;5114437;28;20082;-65
2022/06/04 11:37:45;;;;;;;2.95;2.28;;;26.80;99.90;;;;;;5102625;28;20046;-65
2022/06/04 11:40:44;;;;;;;5.55;2.60;;;26.80;99.90;;;;;;5113753;28;20059;-65
2022/06/04 11:43:29;;;;;;;;;;;26.70;99.90;;;;;;5074653;28;20052;-65
2022/06/04 11:46:19;;;;;;;7.53;2.75;;;26.80;99.90;;;;;;5105322;28;19928;-65
2022/06/04 11:48:54;;;;;;;9.38;2.85;;;26.90;99.90;;;;;;5114080;28;20118;-65
2022/06/04 11:51:37;;;;;;;5.00;2.30;;;26.80;99.90;;;;;;5113845;28;20048;-65
2022/06/04 11:54:29;;;;;;;5.88;2.58;;;26.80;99.90;;;;;;5102067;28;20044;-65
2022/06/04 11:57:21;;;;;;;4.65;3.00;;;26.80;99.90;;;;;;5094199;28;20453;-65
2022/06/04 12:00:07;;;;;;;5.05;2.50;;;26.70;99.90;;;;;;5087166;28;20434;-65
2022/06/04 12:02:54;;;;;;;4.65;2.40;;;26.70;99.90;;;;;;5093761;28;20126;-66
2022/06/04 12:05:30;;;;;;;;;;;26.60;99.90;;;;;;5094086;28;20040;-65
2022/06/04 12:08:04;;;;;;;4.75;2.38;;;26.70;99.90;;;;;;5082231;28;20162;-65
2022/06/04 12:10:56;;;;;;;6.05;2.75;;;26.60;99.90;;;;;;5094101;28;20139;-65
2022/06/04 12:13:37;;;;;;;4.10;2.47;;;26.70;99.90;;;;;;5094537;28;20097;-65
2022/06/04 12:16:40;;;;;;;6.25;2.88;;;26.70;99.90;;;;;;5098020;28;20035;-65
2022/06/04 12:25:06;;;;;;;5.63;2.58;;;26.70;99.90;;;;;;5100384;28;20493;-65
2022/06/04 12:27:33;;;;;;;5.25;2.67;;;26.70;99.90;;;;;;5090969;28;20508;-65
2022/06/04 12:30:12;;;;;;;4.95;2.50;;;26.80;99.90;;;;;;5095913;28;20098;-66
2022/06/04 12:32:41;;;;;;;6.15;2.42;;;26.80;99.90;;;;;;5104711;28;20104;-66
2022/06/04 12:35:11;;;;;;;5.53;2.35;;;26.70;99.90;;;;;;5111391;28;20048;-65
2022/06/04 12:37:41;;;;;;;5.13;2.47;;;26.70;99.90;;;;;;5103615;28;20411;-65
2022/06/04 12:40:22;;;;;;;11.77;2.33;;;26.70;99.90;;;;;;5097539;28;20043;-66
2022/06/04 12:43:18;;;;;;;4.50;2.33;;;26.70;99.90;;;;;;5112683;28;20035;-66
2022/06/04 12:45:50;;;;;;;7.05;2.60;;;26.70;99.90;;;;;;5111563;28;20059;-65
2022/06/04 12:49:07;;;;;;;7.55;2.50;;;26.80;99.90;;;;;;5095286;28;20036;-65
2022/06/04 12:51:49;;;;;;;9.52;2.50;;;26.80;99.90;;;;;;5085098;28;20051;-65
2022/06/04 12:54:30;;;;;;;8.30;3.20;;;26.90;99.90;;;;;;5112928;28;20418;-63
2022/06/04 12:57:33;;;;;;;5.05;2.33;;;26.80;99.90;;;;;;5102484;28;20047;-62
2022/06/04 13:00:18;;;;;;;3.03;2.30;;;26.90;99.90;;;;;;5080952;28;20400;-63
2022/06/04 13:03:06;;;;;;;5.38;2.30;;;26.90;99.90;;;;;;5085739;28;20040;-63
2022/06/04 13:05:57;;;;;;;6.38;2.20;;;26.80;99.90;;;;;;5091901;28;20654;-63
2022/06/04 13:08:26;;;;;;;6.47;2.50;;;26.90;99.90;;;;;;5100547;28;20796;-61
2022/06/04 13:11:01;;;;;;;6.82;2.40;;;26.60;99.90;;;;;;5111372;28;20040;-62
2022/06/04 13:14:00;;;;;;;6.20;2.55;;;26.60;99.90;;;;;;5112468;28;20048;-62
2022/06/04 13:16:31;;;;;;;6.57;2.60;;;26.80;99.90;;;;;;5111083;28;20110;-65
2022/06/04 13:19:08;;;;;;;7.32;2.25;;;27.10;99.90;;;;;;5103987;28;20059;-65
2022/06/04 13:21:47;;;;;;;3.10;2.05;;;27.20;99.90;;;;;;5112101;28;20047;-63
2022/06/04 13:24:19;;;;;;;8.00;2.50;;;27.10;99.90;;;;;;5112129;28;20036;-63
2022/06/04 13:26:55;;;;;;;7.38;2.25;;;27.20;99.90;;;;;;5100880;28;20102;-63
2022/06/04 13:29:32;;;;;;;3.70;2.35;;;27.10;99.90;;;;;;5091740;28;20043;-61
2022/06/04 13:32:09;;;;;;;7.03;2.35;;;26.90;99.90;;;;;;5091539;28;20055;-63
2022/06/04 13:34:36;;;;;;;6.90;2.22;;;26.80;99.90;;;;;;5091534;28;20036;-63
2022/06/04 13:37:07;;;;;;;;;;;26.60;99.90;;;;;;5103756;28;20050;-62
2022/06/04 13:39:35;;;;;;;7.68;2.33;;;26.50;99.90;;;;;;5112005;28;19919;-63
2022/06/04 13:42:13;;;;;;;7.60;2.78;;;26.50;99.90;;;;;;5111727;28;20044;-62